Rizokarpason, Cyprus
Current Conditions -  °F | °C
As of 5:50 AM on Thursday 23 Oct 2014 (Local Time) from LCEN Reporting Station
Scattered Clouds Scattered Clouds  
Wind Chill: 15°   Ceiling: Unl
Heat Index: 15°   Visibility: 6mi
Dew Point: 12°   Wind: 7mph
Humidity: 82%   Direction: 260°W
Pressure: 29.91"   Gusts: NA
Location:  35.58°N, 34.4°E
Report Text: LCEN 230250Z 26006KT 9999 SCT030 15/12 Q1013 NOSIG
Loading
Personal Weather Stations






























Interactive Weather Map
Tropical Storm Tracking
New forecast layout! Learn more

10-Day Weather Forecast

Advertisements
Track Severe Weather on mobile